createdAt,value
2018-04-01T00:01:22.156Z,93351.40
2018-04-01T00:03:48.478Z,93349.88
2018-04-01T00:06:14.820Z,93329.59
2018-04-01T00:08:41.202Z,93368.31
2018-04-01T00:11:07.575Z,93383.41
2018-04-01T00:13:33.978Z,93362.02
2018-04-01T00:16:00.459Z,93356.98
2018-04-01T00:18:26.964Z,93375.19
2018-04-01T00:20:53.375Z,93386.52
2018-04-01T00:23:19.706Z,93386.21
2018-04-01T00:25:46.085Z,93372.07
2018-04-01T00:28:12.495Z,93380.90
2018-04-01T00:30:38.918Z,93374.61
2018-04-01T00:33:05.314Z,93366.97
2018-04-01T00:35:31.666Z,93397.38
2018-04-01T00:37:58.041Z,93396.26
2018-04-01T00:40:24.476Z,93394.44
2018-04-01T00:42:50.940Z,93388.55
2018-04-01T00:45:17.351Z,93366.97
2018-04-01T00:47:44.009Z,93370.31
2018-04-01T00:50:10.347Z,93362.64
2018-04-01T00:52:36.673Z,93349.45
2018-04-01T00:55:03.078Z,93343.49
2018-04-01T00:57:29.432Z,93329.66
2018-04-01T00:59:55.837Z,93331.69
2018-04-01T01:02:22.162Z,93326.23
2018-04-01T01:04:48.513Z,93327.66
2018-04-01T01:07:14.875Z,93325.73
2018-04-01T01:09:41.187Z,93312.88
2018-04-01T01:12:07.758Z,93316.03
2018-04-01T01:14:34.277Z,93313.53
2018-04-01T01:17:00.610Z,93322.52
2018-04-01T01:19:26.927Z,93318.50
2018-04-01T01:21:53.336Z,93303.72
2018-04-01T01:24:19.673Z,93331.86
2018-04-01T01:26:46.058Z,93315.77
2018-04-01T01:29:12.401Z,93328.14
2018-04-01T01:31:38.772Z,93337.00
2018-04-01T01:34:05.106Z,93336.26
2018-04-01T01:36:31.437Z,93349.98
2018-04-01T01:38:57.799Z,93356.01
2018-04-01T01:41:24.237Z,93363.31
2018-04-01T01:43:50.598Z,93347.89
2018-04-01T01:46:16.963Z,93338.36
2018-04-01T01:48:43.320Z,93364.27
2018-04-01T01:51:09.762Z,93372.89
2018-04-01T01:53:36.204Z,93375.53
2018-04-01T01:56:02.558Z,93356.08
2018-04-01T01:58:28.928Z,93380.40
2018-04-01T02:00:55.295Z,93360.72
2018-04-01T02:03:21.630Z,93358.78
2018-04-01T02:05:48.026Z,93355.34
2018-04-01T02:08:14.379Z,93360.48
2018-04-01T02:10:40.721Z,93356.69
2018-04-01T02:13:07.047Z,93350.97
2018-04-01T02:15:33.378Z,93353.38
2018-04-01T02:17:59.741Z,93357.27
2018-04-01T02:20:26.074Z,93335.55
2018-04-01T02:22:52.478Z,93364.06
2018-04-01T02:25:18.819Z,93357.33
2018-04-01T02:27:45.178Z,93356.19
2018-04-01T02:30:11.532Z,93342.52
2018-04-01T02:32:37.910Z,93358.69
2018-04-01T02:35:04.237Z,93361.49
2018-04-01T02:37:30.608Z,93365.82
2018-04-01T02:39:57.000Z,93360.48
2018-04-01T02:42:23.374Z,93345.97
2018-04-01T02:44:49.696Z,93351.62
2018-04-01T02:47:16.036Z,93344.02
2018-04-01T02:49:42.397Z,93350.54
2018-04-01T02:52:08.767Z,93348.06
2018-04-01T02:54:35.099Z,93349.35
2018-04-01T02:57:01.464Z,93345.39
2018-04-01T02:59:27.795Z,93356.42
2018-04-01T03:01:54.183Z,93365.55
2018-04-01T03:04:20.521Z,93375.12
2018-04-01T03:06:46.882Z,93372.38
2018-04-01T03:09:13.210Z,93359.19
2018-04-01T03:11:39.537Z,93358.95
2018-04-01T03:14:05.887Z,93354.83
2018-04-01T03:16:32.274Z,93350.94
2018-04-01T03:18:58.603Z,93344.66
2018-04-01T03:21:24.982Z,93344.79
2018-04-01T03:23:51.298Z,93354.12
2018-04-01T03:26:17.674Z,93363.75
2018-04-01T03:28:44.061Z,93354.28
2018-04-01T03:31:10.441Z,93342.48
2018-04-01T03:33:36.801Z,93350.09
2018-04-01T03:36:03.142Z,93348.13
2018-04-01T03:38:29.450Z,93352.70
2018-04-01T03:40:55.830Z,93345.63
2018-04-01T03:43:22.213Z,93352.26
2018-04-01T03:45:48.560Z,93351.14
2018-04-01T03:48:14.886Z,93361.76
2018-04-01T03:50:41.243Z,93379.23
2018-04-01T03:53:07.609Z,93385.90
2018-04-01T03:55:34.018Z,93405.64
2018-04-01T03:58:00.346Z,93422.84
2018-04-01T04:00:26.747Z,93451.36
2018-04-01T04:02:53.145Z,93435.06
2018-04-01T04:05:19.484Z,93448.04
2018-04-01T04:07:45.812Z,93443.06
2018-04-01T04:10:12.173Z,93440.73
2018-04-01T04:12:38.490Z,93440.34
2018-04-01T04:15:04.844Z,93463.62
2018-04-01T04:17:31.221Z,93482.32
2018-04-01T04:19:58.604Z,93507.77
2018-04-01T04:22:24.927Z,93512.93
2018-04-01T04:24:51.259Z,93535.22
2018-04-01T04:27:17.613Z,93510.00
2018-04-01T04:29:43.930Z,93545.80
2018-04-01T04:32:10.286Z,93524.00
2018-04-01T04:34:36.698Z,93543.86
2018-04-01T04:37:03.055Z,93554.45
2018-04-01T04:39:29.365Z,93568.33
2018-04-01T04:41:55.735Z,93568.69
2018-04-01T04:44:22.062Z,93608.91
2018-04-01T04:46:48.418Z,93636.08
2018-04-01T04:49:14.817Z,93639.05
2018-04-01T04:51:41.140Z,93618.31
2018-04-01T04:54:07.482Z,93618.38
2018-04-01T04:56:33.858Z,93642.25
2018-04-01T04:59:00.238Z,93672.27
2018-04-01T05:01:26.596Z,93657.97
2018-04-01T05:03:52.921Z,93654.69
2018-04-01T05:06:19.246Z,93643.00
2018-04-01T05:08:45.569Z,93618.33
2018-04-01T05:11:11.937Z,93630.04
2018-04-01T05:13:38.333Z,93645.58
2018-04-01T05:16:04.641Z,93624.75
2018-04-01T05:18:30.962Z,93582.06
2018-04-01T05:20:57.280Z,93586.88
2018-04-01T05:23:23.732Z,93643.63
2018-04-01T05:25:50.076Z,93573.17
2018-04-01T05:28:16.536Z,93568.44
2018-04-01T05:30:42.864Z,93556.71
2018-04-01T05:33:09.188Z,93538.80
2018-04-01T05:35:35.547Z,93478.55
2018-04-01T05:38:01.939Z,93459.76
2018-04-01T05:40:28.333Z,93477.44
2018-04-01T05:42:54.739Z,93462.84
2018-04-01T05:45:21.091Z,93455.56
2018-04-01T05:47:47.429Z,93488.70
2018-04-01T05:50:14.773Z,93511.94
2018-04-01T05:52:41.159Z,93503.36
2018-04-01T05:55:07.534Z,93482.39
2018-04-01T05:57:33.873Z,93490.19
2018-04-01T06:00:00.215Z,93478.92
2018-04-01T06:02:26.639Z,93454.16
2018-04-01T06:04:53.010Z,93431.19
2018-04-01T06:07:19.321Z,93429.95
2018-04-01T06:09:45.649Z,93432.69
2018-04-01T06:12:12.158Z,93460.09
2018-04-01T06:14:38.653Z,93454.92
2018-04-01T06:17:04.961Z,93455.91
2018-04-01T06:19:31.375Z,93458.98
2018-04-01T06:21:57.694Z,93452.45
2018-04-01T06:24:24.005Z,93453.13
2018-04-01T06:26:50.365Z,93450.32
2018-04-01T06:29:16.703Z,93442.47
2018-04-01T06:31:43.130Z,93461.08
2018-04-01T06:34:09.445Z,93475.29
2018-04-01T06:36:35.847Z,93479.97
2018-04-01T06:39:02.162Z,93498.98
2018-04-01T06:41:28.543Z,93485.88
2018-04-01T06:43:54.966Z,93492.34
2018-04-01T06:46:21.354Z,93503.08
2018-04-01T06:48:47.709Z,93501.00
2018-04-01T06:51:14.100Z,93518.73
2018-04-01T06:53:40.565Z,93536.48
2018-04-01T06:56:06.958Z,93545.83
2018-04-01T06:58:33.377Z,93551.62
2018-04-01T07:00:59.693Z,93562.83
2018-04-01T07:03:26.057Z,93561.56
2018-04-01T07:05:52.374Z,93578.98
2018-04-01T07:08:18.725Z,93572.63
2018-04-01T07:10:45.056Z,93591.03
2018-04-01T07:13:11.440Z,93601.09
2018-04-01T07:15:37.947Z,93600.55
2018-04-01T07:18:04.311Z,93604.84
2018-04-01T07:20:31.693Z,93603.15
2018-04-01T07:22:58.020Z,93603.98
2018-04-01T07:25:24.395Z,93601.58
2018-04-01T07:27:50.765Z,93601.00
2018-04-01T07:30:20.443Z,93598.93
2018-04-01T07:32:46.858Z,93611.13
2018-04-01T07:35:13.391Z,93606.20
2018-04-01T07:37:39.735Z,93609.45
2018-04-01T07:40:06.146Z,93599.14
2018-04-01T07:42:32.481Z,93595.11
2018-04-01T07:44:58.862Z,93596.58
2018-04-01T07:47:25.255Z,93601.42
2018-04-01T07:49:51.615Z,93604.56
2018-04-01T07:52:18.021Z,93602.40
2018-04-01T07:54:44.354Z,93599.04
2018-04-01T07:57:10.697Z,93579.12
2018-04-01T07:59:37.161Z,93588.09
2018-04-01T08:02:03.646Z,93591.24
2018-04-01T08:04:29.978Z,93590.59
2018-04-01T08:06:56.646Z,93598.73
2018-04-01T08:09:23.086Z,93600.36
2018-04-01T08:11:49.582Z,93602.21
2018-04-01T08:14:15.958Z,93604.88
2018-04-01T08:16:42.382Z,93609.45
2018-04-01T08:19:08.769Z,93606.72
2018-04-01T08:21:35.101Z,93598.71
2018-04-01T08:24:01.522Z,93603.75
2018-04-01T08:26:27.919Z,93611.80
2018-04-01T08:28:55.407Z,93613.25
2018-04-01T08:31:21.940Z,93601.02
2018-04-01T08:33:49.393Z,93606.31
2018-04-01T08:36:15.786Z,93605.70
2018-04-01T08:41:14.562Z,93602.80
2018-04-01T08:43:40.932Z,93599.48
2018-04-01T08:46:07.314Z,93589.48
2018-04-01T08:48:33.722Z,93596.88
2018-04-01T08:51:00.062Z,93607.78
2018-04-01T08:53:26.625Z,93581.50
2018-04-01T08:55:53.023Z,93585.91
2018-04-01T08:58:19.437Z,93578.45
2018-04-01T09:00:45.843Z,93583.34
2018-04-01T09:03:12.211Z,93580.59
2018-04-01T09:05:38.606Z,93572.81
2018-04-01T09:08:05.006Z,93573.75
2018-04-01T09:10:32.459Z,93586.73
2018-04-01T09:12:58.781Z,93583.81
2018-04-01T09:15:25.206Z,93584.64
2018-04-01T09:17:51.568Z,93588.09
2018-04-01T09:20:18.009Z,93580.84
2018-04-01T09:22:44.406Z,93575.20
2018-04-01T09:25:10.745Z,93573.41
2018-04-01T09:27:37.273Z,93582.15
2018-04-01T09:30:03.760Z,93576.80
2018-04-01T09:32:30.105Z,93579.47
2018-04-01T09:34:56.677Z,93572.81
2018-04-01T09:37:23.176Z,93569.09
2018-04-01T09:39:49.543Z,93571.44
2018-04-01T09:42:15.863Z,93561.59
2018-04-01T09:44:42.191Z,93565.70
2018-04-01T09:47:08.725Z,93565.47
2018-04-01T09:49:35.063Z,93553.84
2018-04-01T09:52:01.381Z,93564.50
2018-04-01T09:54:27.777Z,93564.99
2018-04-01T09:56:54.192Z,93564.67
2018-04-01T09:59:20.570Z,93568.52
2018-04-01T10:01:46.979Z,93554.52
2018-04-01T10:04:13.366Z,93546.13
2018-04-01T10:06:39.715Z,93544.22
2018-04-01T10:09:06.106Z,93541.38
2018-04-01T10:11:32.513Z,93555.91
2018-04-01T10:13:58.899Z,93565.57
2018-04-01T10:16:25.336Z,93558.24
2018-04-01T10:18:51.692Z,93569.37
2018-04-01T10:21:18.069Z,93560.64
2018-04-01T10:23:44.425Z,93549.12
2018-04-01T10:26:10.909Z,93559.77
2018-04-01T10:28:37.308Z,93557.46
2018-04-01T10:31:03.627Z,93558.89
2018-04-01T10:33:30.001Z,93555.11
2018-04-01T10:35:56.482Z,93563.73
2018-04-01T10:38:22.988Z,93578.55
2018-04-01T10:40:49.370Z,93580.75
2018-04-01T10:43:16.787Z,93562.66
2018-04-01T10:45:43.225Z,93590.66
2018-04-01T10:48:09.599Z,93604.86
2018-04-01T10:50:35.931Z,93602.53
2018-04-01T10:53:02.398Z,93586.45
2018-04-01T10:55:28.791Z,93549.62
2018-04-01T10:57:55.125Z,93534.89
2018-04-01T11:00:21.504Z,93522.40
2018-04-01T11:02:47.906Z,93530.06
2018-04-01T11:05:14.257Z,93517.30
2018-04-01T11:07:40.661Z,93528.98
2018-04-01T11:10:07.002Z,93529.25
2018-04-01T11:12:33.378Z,93541.08
2018-04-01T11:14:59.745Z,93566.83
2018-04-01T11:17:26.181Z,93580.47
2018-04-01T11:19:52.551Z,93589.58
2018-04-01T11:22:19.034Z,93583.61
2018-04-01T11:24:45.526Z,93613.98
2018-04-01T11:27:11.918Z,93665.73
2018-04-01T11:29:38.334Z,93636.48
2018-04-01T11:32:04.664Z,93675.00
2018-04-01T11:34:31.015Z,93690.81
2018-04-01T11:36:57.338Z,93692.58
2018-04-01T11:39:23.700Z,93725.12
2018-04-01T11:41:50.052Z,93758.11
2018-04-01T11:44:16.377Z,93747.77
2018-04-01T11:46:42.689Z,93741.53
2018-04-01T11:49:09.136Z,93740.53
2018-04-01T11:51:35.609Z,93759.63
2018-04-01T11:54:02.010Z,93754.05
2018-04-01T11:56:28.354Z,93754.83
2018-04-01T11:58:54.789Z,93756.66
2018-04-01T12:01:21.126Z,93748.42
2018-04-01T12:03:47.455Z,93739.98
2018-04-01T12:06:13.827Z,93733.36
2018-04-01T12:08:40.221Z,93731.30
2018-04-01T12:11:06.595Z,93717.63
2018-04-01T12:13:32.921Z,93711.25
2018-04-01T12:15:59.263Z,93704.88
2018-04-01T12:18:25.730Z,93711.23
2018-04-01T12:20:52.109Z,93711.73
2018-04-01T12:23:18.461Z,93713.33
2018-04-01T12:25:44.844Z,93717.84
2018-04-01T12:28:11.167Z,93711.88
2018-04-01T12:30:38.134Z,93707.03
2018-04-01T12:33:04.496Z,93709.61
2018-04-01T12:35:30.870Z,93692.42
2018-04-01T12:37:57.214Z,93687.67
2018-04-01T12:40:23.601Z,93692.66
2018-04-01T12:42:49.923Z,93681.53
2018-04-01T12:45:16.282Z,93676.31
2018-04-01T12:47:42.618Z,93682.59
2018-04-01T12:50:08.978Z,93682.96
2018-04-01T12:52:35.313Z,93691.44
2018-04-01T12:55:01.647Z,93696.52
2018-04-01T12:57:28.044Z,93696.59
2018-04-01T12:59:54.497Z,93680.41
2018-04-01T13:02:20.829Z,93682.34
2018-04-01T13:04:47.198Z,93672.34
2018-04-01T13:07:13.619Z,93669.20
2018-04-01T13:09:39.941Z,93667.09
2018-04-01T13:12:06.301Z,93672.15
2018-04-01T13:14:32.661Z,93657.33
2018-04-01T13:16:58.988Z,93653.16
2018-04-01T13:19:25.472Z,93652.28
2018-04-01T13:21:51.899Z,93648.20
2018-04-01T13:24:18.329Z,93652.52
2018-04-01T13:26:44.719Z,93656.72
2018-04-01T13:29:11.107Z,93656.55
2018-04-01T13:31:37.562Z,93659.13
2018-04-01T13:34:03.938Z,93660.72
2018-04-01T13:36:30.265Z,93657.84
2018-04-01T13:38:56.658Z,93652.69
2018-04-01T13:41:23.042Z,93658.98
2018-04-01T13:43:49.408Z,93665.36
2018-04-01T13:46:15.750Z,93663.40
2018-04-01T13:48:42.260Z,93663.56
2018-04-01T13:51:08.665Z,93666.35
2018-04-01T13:53:35.006Z,93671.94
2018-04-01T13:56:01.354Z,93678.00
2018-04-01T13:58:27.678Z,93712.05
2018-04-01T14:00:54.075Z,93738.41
2018-04-01T14:03:20.417Z,93753.94
2018-04-01T14:05:46.771Z,93770.89
2018-04-01T14:08:13.092Z,93790.66
2018-04-01T14:10:39.480Z,93789.67
2018-04-01T14:13:05.938Z,93813.34
2018-04-01T14:15:32.278Z,93825.98
2018-04-01T14:17:58.667Z,93840.00
2018-04-01T14:20:25.186Z,93839.52
2018-04-01T14:22:51.525Z,93856.44
2018-04-01T14:25:17.924Z,93869.63
2018-04-01T14:27:44.267Z,93875.84
2018-04-01T14:30:10.599Z,93880.81
2018-04-01T14:32:36.925Z,93871.09
2018-04-01T14:35:03.299Z,93874.25
2018-04-01T14:37:29.725Z,93870.84
2018-04-01T14:39:56.055Z,93879.19
2018-04-01T14:42:22.413Z,93866.23
2018-04-01T14:44:48.757Z,93852.79
2018-04-01T14:47:15.602Z,93844.56
2018-04-01T14:49:42.484Z,93843.41
2018-04-01T14:52:08.854Z,93846.28
2018-04-01T14:54:35.281Z,93841.13
2018-04-01T14:57:01.682Z,93842.19
2018-04-01T14:59:28.091Z,93833.27
2018-04-01T15:01:54.442Z,93832.28
2018-04-01T15:04:20.757Z,93831.77
2018-04-01T15:06:47.146Z,93840.08
2018-04-01T15:09:13.474Z,93840.14
2018-04-01T15:11:39.852Z,93841.77
2018-04-01T15:14:06.229Z,93843.13
2018-04-01T15:16:32.582Z,93846.41
2018-04-01T15:18:58.934Z,93857.77
2018-04-01T15:21:25.313Z,93853.77
2018-04-01T15:23:51.660Z,93847.83
2018-04-01T15:26:18.014Z,93859.19
2018-04-01T15:28:44.380Z,93863.63
2018-04-01T15:31:10.758Z,93860.30
2018-04-01T15:33:37.115Z,93867.63
2018-04-01T15:36:03.441Z,93866.68
2018-04-01T15:38:29.768Z,93878.75
2018-04-01T15:40:56.167Z,93864.91
2018-04-01T15:43:22.543Z,93874.30
2018-04-01T15:45:48.926Z,93868.84
2018-04-01T15:48:15.277Z,93880.10
2018-04-01T15:50:41.610Z,93888.66
2018-04-01T15:53:07.987Z,93877.25
2018-04-01T15:55:34.386Z,93886.40
2018-04-01T15:58:00.723Z,93888.55
2018-04-01T16:00:27.037Z,93901.27
2018-04-01T16:02:53.355Z,93901.91
2018-04-01T16:05:19.696Z,93910.58
2018-04-01T16:07:46.130Z,93917.25
2018-04-01T16:10:12.566Z,93924.09
2018-04-01T16:12:38.971Z,93930.53
2018-04-01T16:15:05.369Z,93941.78
2018-04-01T16:17:31.747Z,93941.37
2018-04-01T16:19:58.118Z,93944.66
2018-04-01T16:22:24.484Z,93947.93
2018-04-01T16:24:50.883Z,93959.92
2018-04-01T16:27:17.282Z,93958.48
2018-04-01T16:29:43.734Z,93964.03
2018-04-01T16:32:10.122Z,93966.09
2018-04-01T16:34:36.509Z,93966.38
2018-04-01T16:37:02.877Z,93978.02
2018-04-01T16:39:29.318Z,93984.73
2018-04-01T16:41:55.769Z,93985.92
2018-04-01T16:44:22.155Z,93985.98
2018-04-01T16:46:48.524Z,93991.41
2018-04-01T16:49:14.894Z,93987.50
2018-04-01T16:51:41.280Z,93990.25
2018-04-01T16:54:07.714Z,93992.83
2018-04-01T16:56:34.288Z,93997.27
2018-04-01T16:59:00.761Z,93990.48
2018-04-01T17:01:27.154Z,93995.22
2018-04-01T17:03:53.592Z,93989.06
2018-04-01T17:06:20.011Z,94006.16
2018-04-01T17:08:46.446Z,93997.96
2018-04-01T17:11:12.953Z,94006.62
2018-04-01T17:13:39.341Z,94005.09
2018-04-01T17:16:05.752Z,94010.08
2018-04-01T17:18:32.122Z,94005.16
2018-04-01T17:20:58.511Z,94007.22
2018-04-01T17:23:24.944Z,94008.39
2018-04-01T17:25:51.376Z,94006.06
2018-04-01T17:28:17.786Z,94012.47
2018-04-01T17:30:44.206Z,94016.33
2018-04-01T17:33:10.576Z,94009.95
2018-04-01T17:35:36.960Z,94012.82
2018-04-01T17:38:03.364Z,94013.70
2018-04-01T17:40:29.805Z,94008.48
2018-04-01T17:42:56.252Z,94011.34
2018-04-01T17:45:22.618Z,94012.23
2018-04-01T17:47:48.982Z,94017.37
2018-04-01T17:50:15.351Z,94040.89
2018-04-01T17:52:41.946Z,94035.84
2018-04-01T17:55:08.542Z,94042.55
2018-04-01T17:57:34.916Z,94047.11
2018-04-01T18:00:01.291Z,94037.31
2018-04-01T18:02:27.687Z,94045.16
2018-04-01T18:04:54.066Z,94051.38
2018-04-01T18:07:20.452Z,94055.13
2018-04-01T18:09:46.835Z,94064.20
2018-04-01T18:12:13.254Z,94059.33
2018-04-01T18:14:39.730Z,94056.63
2018-04-01T18:17:06.131Z,94051.57
2018-04-01T18:19:32.611Z,94067.20
2018-04-01T18:21:59.024Z,94077.35
2018-04-01T18:24:25.555Z,94069.84
2018-04-01T18:26:52.011Z,94067.39
2018-04-01T18:29:18.420Z,94077.09
2018-04-01T18:31:44.812Z,94075.62
2018-04-01T18:34:11.193Z,94085.42
2018-04-01T18:36:37.627Z,94077.69
2018-04-01T18:39:04.001Z,94078.79
2018-04-01T18:41:30.391Z,94074.52
2018-04-01T18:43:56.798Z,94076.09
2018-04-01T18:46:23.286Z,94089.97
2018-04-01T18:48:49.662Z,94086.67
2018-04-01T18:51:16.083Z,94094.39
2018-04-01T18:53:42.452Z,94096.27
2018-04-01T18:56:08.866Z,94107.39
2018-04-01T18:58:35.236Z,94110.59
2018-04-01T19:01:01.658Z,94117.74
2018-04-01T19:03:28.031Z,94113.34
2018-04-01T19:05:54.400Z,94120.88
2018-04-01T19:08:21.421Z,94122.23
2018-04-01T19:10:47.801Z,94128.31
2018-04-01T19:13:14.191Z,94136.60
2018-04-01T19:15:40.559Z,94136.00
2018-04-01T19:18:06.940Z,94135.03
2018-04-01T19:20:33.338Z,94138.58
2018-04-01T19:22:59.705Z,94130.56
2018-04-01T19:25:26.082Z,94133.14
2018-04-01T19:27:52.477Z,94136.00
2018-04-01T19:30:18.905Z,94132.20
2018-04-01T19:32:45.343Z,94135.30
2018-04-01T19:35:11.747Z,94129.55
2018-04-01T19:37:38.122Z,94128.67
2018-04-01T19:40:04.602Z,94136.41
2018-04-01T19:42:30.966Z,94146.34
2018-04-01T19:44:57.337Z,94146.42
2018-04-01T19:47:23.840Z,94148.20
2018-04-01T19:49:51.015Z,94142.45
2018-04-01T19:52:17.387Z,94146.56
2018-04-01T19:54:43.747Z,94147.09
2018-04-01T19:57:10.176Z,94142.34
2018-04-01T19:59:36.560Z,94138.28
2018-04-01T20:02:03.003Z,94159.23
2018-04-01T20:04:29.429Z,94164.84
2018-04-01T20:06:55.827Z,94162.34
2018-04-01T20:09:22.250Z,94157.64
2018-04-01T20:11:48.683Z,94163.40
2018-04-01T20:14:15.114Z,94166.84
2018-04-01T20:16:41.503Z,94167.26
2018-04-01T20:19:07.999Z,94176.19
2018-04-01T20:21:34.362Z,94188.32
2018-04-01T20:24:00.751Z,94196.52
2018-04-01T20:26:27.154Z,94197.05
2018-04-01T20:28:53.555Z,94199.89
2018-04-01T20:31:20.026Z,94209.56
2018-04-01T20:33:47.050Z,94217.20
2018-04-01T20:36:13.542Z,94218.81
2018-04-01T20:38:39.976Z,94220.30
2018-04-01T20:41:06.354Z,94228.34
2018-04-01T20:43:32.715Z,94228.76
2018-04-01T20:45:59.345Z,94240.39
2018-04-01T20:48:25.721Z,94234.37
2018-04-01T20:50:52.079Z,94235.05
2018-04-01T20:53:18.498Z,94241.85
2018-04-01T20:55:44.865Z,94222.80
2018-04-01T20:58:13.458Z,94239.69
2018-04-01T21:00:39.820Z,94228.64
2018-04-01T21:03:06.191Z,94237.70
2018-04-01T21:05:32.592Z,94246.03
2018-04-01T21:07:59.446Z,94240.22
2018-04-01T21:10:25.861Z,94237.77
2018-04-01T21:12:52.275Z,94237.81
2018-04-01T21:15:18.658Z,94244.25
2018-04-01T21:17:45.079Z,94250.94
2018-04-01T21:20:11.540Z,94252.08
2018-04-01T21:22:38.038Z,94249.77
2018-04-01T21:25:04.424Z,94258.38
2018-04-01T21:27:30.782Z,94267.30
2018-04-01T21:29:57.203Z,94266.06
2018-04-01T21:32:23.605Z,94272.95
2018-04-01T21:34:49.997Z,94277.57
2018-04-01T21:37:16.375Z,94275.27
2018-04-01T21:39:42.807Z,94294.19
2018-04-01T21:42:09.191Z,94295.83
2018-04-01T21:44:35.631Z,94285.47
2018-04-01T21:47:02.127Z,94282.49
2018-04-01T21:49:28.595Z,94282.79
2018-04-01T21:51:55.013Z,94286.23
2018-04-01T21:54:21.378Z,94286.96
2018-04-01T21:56:47.786Z,94279.16
2018-04-01T21:59:14.200Z,94279.09
2018-04-01T22:01:40.648Z,94279.09
2018-04-01T22:04:07.081Z,94285.88
2018-04-01T22:06:33.536Z,94290.86
2018-04-01T22:09:00.106Z,94298.69
2018-04-01T22:11:28.934Z,94300.75
2018-04-01T22:13:55.292Z,94315.13
2018-04-01T22:16:21.714Z,94309.22
2018-04-01T22:18:48.099Z,94318.27
2018-04-01T22:21:14.590Z,94323.88
2018-04-01T22:23:41.070Z,94326.03
2018-04-01T22:26:07.512Z,94316.41
2018-04-01T22:28:33.973Z,94323.86
2018-04-01T22:31:00.377Z,94338.66
2018-04-01T22:33:26.908Z,94332.55
2018-04-01T22:35:53.420Z,94326.47
2018-04-01T22:38:19.835Z,94342.98
2018-04-01T22:40:46.219Z,94348.80
2018-04-01T22:43:12.774Z,94348.64
2018-04-01T22:45:39.134Z,94359.33
2018-04-01T22:48:05.560Z,94364.88
2018-04-01T22:50:31.948Z,94355.31
2018-04-01T22:52:58.398Z,94359.77
2018-04-01T22:55:24.763Z,94358.08
2018-04-01T22:57:51.187Z,94361.72
2018-04-01T23:00:17.638Z,94365.68
2018-04-01T23:02:44.152Z,94357.92
2018-04-01T23:05:10.689Z,94362.18
2018-04-01T23:07:37.866Z,94358.52
2018-04-01T23:10:04.365Z,94361.67
2018-04-01T23:12:30.750Z,94356.06
2018-04-01T23:14:57.144Z,94360.52
2018-04-01T23:17:23.883Z,94365.05
2018-04-01T23:19:50.304Z,94369.32
2018-04-01T23:22:16.802Z,94368.03
2018-04-01T23:24:43.227Z,94354.56
2018-04-01T23:27:09.642Z,94345.73
2018-04-01T23:29:36.118Z,94343.15
2018-04-01T23:32:02.684Z,94349.27
2018-04-01T23:34:29.094Z,94345.25
2018-04-01T23:36:55.583Z,94355.06
2018-04-01T23:39:22.020Z,94357.63
2018-04-01T23:41:48.447Z,94361.13
2018-04-01T23:44:14.822Z,94372.49
2018-04-01T23:46:41.243Z,94380.75
2018-04-01T23:49:07.734Z,94367.17
2018-04-01T23:51:34.113Z,94376.68
2018-04-01T23:54:00.498Z,94384.91
2018-04-01T23:56:26.975Z,94391.37
2018-04-01T23:58:53.410Z,94393.13
